createdAt,value
2019-02-02T00:00:01.877Z,6.60
2019-02-02T00:02:29.330Z,6.60
2019-02-02T00:04:56.971Z,6.60
2019-02-02T00:07:24.872Z,6.60
2019-02-02T00:10:10.429Z,6.60
2019-02-02T00:12:38.139Z,6.60
2019-02-02T00:15:06.178Z,6.60
2019-02-02T00:17:33.874Z,6.60
2019-02-02T00:20:01.740Z,6.70
2019-02-02T00:22:29.320Z,6.60
2019-02-02T00:24:56.914Z,6.70
2019-02-02T00:27:24.432Z,6.60
2019-02-02T00:29:52.000Z,6.70
2019-02-02T00:32:19.868Z,6.60
2019-02-02T00:34:47.701Z,6.70
2019-02-02T00:37:15.440Z,6.70
2019-02-02T00:39:45.799Z,6.70
2019-02-02T00:42:13.198Z,6.70
2019-02-02T00:44:42.157Z,6.70
2019-02-02T00:47:09.523Z,6.70
2019-02-02T00:49:37.145Z,6.70
2019-02-02T00:52:05.009Z,6.70
2019-02-02T00:54:32.441Z,6.70
2019-02-02T00:57:00.053Z,6.70
2019-02-02T00:59:28.167Z,6.70
2019-02-02T01:01:55.674Z,6.70
2019-02-02T01:04:23.241Z,6.70
2019-02-02T01:06:50.868Z,6.70
2019-02-02T01:09:21.546Z,6.70
2019-02-02T01:11:49.109Z,6.80
2019-02-02T01:14:16.651Z,6.80
2019-02-02T01:16:44.147Z,6.80
2019-02-02T01:19:11.578Z,6.80
2019-02-02T01:21:39.356Z,6.80
2019-02-02T01:24:07.157Z,6.80
2019-02-02T01:26:34.616Z,6.80
2019-02-02T01:29:02.596Z,6.80
2019-02-02T01:31:30.293Z,6.80
2019-02-02T01:33:58.075Z,6.80
2019-02-02T01:36:25.545Z,6.80
2019-02-02T01:38:53.586Z,6.80
2019-02-02T01:41:20.931Z,6.80
2019-02-02T01:43:48.340Z,6.80
2019-02-02T01:46:16.711Z,6.80
2019-02-02T01:48:44.285Z,6.80
2019-02-02T01:51:12.059Z,6.80
2019-02-02T01:53:39.553Z,6.80
2019-02-02T01:56:07.082Z,6.80
2019-02-02T01:58:35.554Z,6.80
2019-02-02T02:01:04.008Z,6.80
2019-02-02T02:03:31.638Z,6.80
2019-02-02T02:05:59.024Z,6.80
2019-02-02T02:08:26.438Z,6.80
2019-02-02T02:10:54.259Z,6.80
2019-02-02T02:13:21.635Z,6.80
2019-02-02T02:15:49.701Z,6.80
2019-02-02T02:18:17.576Z,6.80
2019-02-02T02:20:45.308Z,6.90
2019-02-02T02:23:13.549Z,6.90
2019-02-02T02:25:40.893Z,6.90
2019-02-02T02:28:08.466Z,6.90
2019-02-02T02:30:36.343Z,6.90
2019-02-02T02:33:03.969Z,7.10
2019-02-02T02:35:31.753Z,7.00
2019-02-02T02:38:00.288Z,6.90
2019-02-02T02:40:27.683Z,6.90
2019-02-02T02:42:55.480Z,6.90
2019-02-02T02:45:23.536Z,6.90
2019-02-02T02:47:51.175Z,6.90
2019-02-02T02:50:19.331Z,6.90
2019-02-02T02:52:47.186Z,6.90
2019-02-02T02:55:15.970Z,6.90
2019-02-02T02:57:43.652Z,6.90
2019-02-02T03:00:14.203Z,6.90
2019-02-02T03:02:41.833Z,6.90
2019-02-02T03:05:09.917Z,6.80
2019-02-02T03:07:37.538Z,6.80
2019-02-02T03:10:07.277Z,6.80
2019-02-02T03:12:35.182Z,6.80
2019-02-02T03:15:04.124Z,6.80
2019-02-02T03:17:31.530Z,6.80
2019-02-02T03:19:59.552Z,6.80
2019-02-02T03:22:27.668Z,6.80
2019-02-02T03:24:58.463Z,6.80
2019-02-02T03:27:26.586Z,6.90
2019-02-02T03:29:54.707Z,6.90
2019-02-02T03:32:23.060Z,6.80
2019-02-02T03:34:51.144Z,6.80
2019-02-02T03:37:19.057Z,6.90
2019-02-02T03:39:47.227Z,6.90
2019-02-02T03:42:14.851Z,6.80
2019-02-02T03:44:42.564Z,6.90
2019-02-02T03:47:10.312Z,6.90
2019-02-02T03:49:37.680Z,6.90
2019-02-02T03:52:05.461Z,6.90
2019-02-02T03:54:33.165Z,6.90
2019-02-02T03:57:00.832Z,6.80
2019-02-02T03:59:28.197Z,6.90
2019-02-02T04:01:55.950Z,6.90
2019-02-02T04:04:23.575Z,6.90
2019-02-02T04:06:50.956Z,6.90
2019-02-02T04:09:18.979Z,6.90
2019-02-02T04:11:46.843Z,6.90
2019-02-02T04:14:14.597Z,6.90
2019-02-02T04:16:42.098Z,7.10
2019-02-02T04:19:10.085Z,6.80
2019-02-02T04:21:38.105Z,6.80
2019-02-02T04:24:05.610Z,6.80
2019-02-02T04:26:33.474Z,6.80
2019-02-02T04:29:01.708Z,6.80
2019-02-02T04:31:31.173Z,6.80
2019-02-02T04:33:58.492Z,6.80
2019-02-02T04:36:26.362Z,6.80
2019-02-02T04:38:54.199Z,6.80
2019-02-02T04:41:21.880Z,6.80
2019-02-02T04:43:50.016Z,6.80
2019-02-02T04:46:17.379Z,6.80
2019-02-02T04:48:45.953Z,6.80
2019-02-02T04:51:13.963Z,6.80
2019-02-02T04:53:41.688Z,6.80
2019-02-02T04:56:09.239Z,6.80
2019-02-02T04:58:36.555Z,7.20
2019-02-02T05:01:03.896Z,6.80
2019-02-02T05:03:31.464Z,6.80
2019-02-02T05:05:58.895Z,6.80
2019-02-02T05:08:26.725Z,6.80
2019-02-02T05:10:54.396Z,6.80
2019-02-02T05:13:21.911Z,6.80
2019-02-02T05:15:51.414Z,6.80
2019-02-02T05:18:19.658Z,6.80
2019-02-02T05:20:47.063Z,6.80
2019-02-02T05:23:14.671Z,6.80
2019-02-02T05:25:42.441Z,6.80
2019-02-02T05:28:10.017Z,6.80
2019-02-02T05:30:37.745Z,6.80
2019-02-02T05:33:05.354Z,6.80
2019-02-02T05:35:33.461Z,6.80
2019-02-02T05:38:01.034Z,6.80
2019-02-02T05:40:29.133Z,6.80
2019-02-02T05:42:56.588Z,6.80
2019-02-02T05:45:24.391Z,6.80
2019-02-02T05:47:52.094Z,6.80
2019-02-02T05:50:21.103Z,6.80
2019-02-02T05:52:48.717Z,6.80
2019-02-02T05:55:16.566Z,6.80
2019-02-02T05:57:44.622Z,6.80
2019-02-02T06:00:16.951Z,6.80
2019-02-02T06:02:44.836Z,6.70
2019-02-02T06:05:12.753Z,6.70
2019-02-02T06:07:40.778Z,6.70
2019-02-02T06:10:10.536Z,6.80
2019-02-02T06:12:38.478Z,6.70
2019-02-02T06:15:06.848Z,6.80
2019-02-02T06:17:34.871Z,6.80
2019-02-02T06:20:02.914Z,6.80
2019-02-02T06:22:30.716Z,6.70
2019-02-02T06:24:58.263Z,6.80
2019-02-02T06:27:25.720Z,6.80
2019-02-02T06:30:03.753Z,6.80
2019-02-02T06:32:23.761Z,6.80
2019-02-02T06:34:51.915Z,6.80
2019-02-02T06:37:19.632Z,6.80
2019-02-02T06:39:47.767Z,6.80
2019-02-02T06:42:15.412Z,6.80
2019-02-02T06:44:43.288Z,6.80
2019-02-02T06:47:10.888Z,6.80
2019-02-02T06:49:39.108Z,6.80
2019-02-02T06:52:07.425Z,6.80
2019-02-02T06:54:35.633Z,6.40
2019-02-02T06:57:03.450Z,6.80
2019-02-02T06:59:31.004Z,6.80
2019-02-02T07:01:59.649Z,6.80
2019-02-02T07:04:27.619Z,6.80
2019-02-02T07:06:56.021Z,6.80
2019-02-02T07:09:24.107Z,6.80
2019-02-02T07:11:51.981Z,6.80
2019-02-02T07:14:19.747Z,6.80
2019-02-02T07:16:47.905Z,6.80
2019-02-02T07:19:15.778Z,6.80
2019-02-02T07:21:44.240Z,6.80
2019-02-02T07:24:12.032Z,6.80
2019-02-02T07:26:40.116Z,6.80
2019-02-02T07:29:08.131Z,6.80
2019-02-02T07:31:37.025Z,6.80
2019-02-02T07:34:07.185Z,6.80
2019-02-02T07:36:35.031Z,6.80
2019-02-02T07:39:05.169Z,6.80
2019-02-02T07:41:33.707Z,6.80
2019-02-02T07:44:01.474Z,6.80
2019-02-02T07:46:29.850Z,6.90
2019-02-02T07:48:58.422Z,6.80
2019-02-02T07:51:26.112Z,6.80
2019-02-02T07:53:56.956Z,6.80
2019-02-02T07:56:25.086Z,6.80
2019-02-02T07:58:53.031Z,6.80
2019-02-02T08:01:21.578Z,6.80
2019-02-02T08:03:49.776Z,6.80
2019-02-02T08:06:17.733Z,6.90
2019-02-02T08:08:45.585Z,6.80
2019-02-02T08:11:13.950Z,6.90
2019-02-02T08:13:42.168Z,6.80
2019-02-02T08:16:10.450Z,6.90
2019-02-02T08:18:38.492Z,6.90
2019-02-02T08:21:06.235Z,6.90
2019-02-02T08:23:34.148Z,6.90
2019-02-02T08:26:02.190Z,6.90
2019-02-02T08:28:30.138Z,6.90
2019-02-02T08:30:57.456Z,6.90
2019-02-02T08:33:25.275Z,6.90
2019-02-02T08:35:53.174Z,6.90
2019-02-02T08:38:24.060Z,6.90
2019-02-02T08:40:51.839Z,6.90
2019-02-02T08:43:19.908Z,6.90
2019-02-02T08:45:47.867Z,6.90
2019-02-02T08:48:17.060Z,6.90
2019-02-02T08:50:45.652Z,6.90
2019-02-02T08:53:13.525Z,6.90
2019-02-02T08:55:41.272Z,6.90
2019-02-02T08:58:09.065Z,6.90
2019-02-02T09:00:38.351Z,6.90
2019-02-02T09:03:05.995Z,6.90
2019-02-02T09:05:34.258Z,6.90
2019-02-02T09:08:02.376Z,7.00
2019-02-02T09:10:30.799Z,7.00
2019-02-02T09:12:59.436Z,6.90
2019-02-02T09:15:27.260Z,6.90
2019-02-02T09:17:55.210Z,6.60
2019-02-02T09:20:23.126Z,7.00
2019-02-02T09:23:02.620Z,7.00
2019-02-02T09:25:20.652Z,6.90
2019-02-02T09:27:48.605Z,6.90
2019-02-02T09:30:22.186Z,7.00
2019-02-02T09:32:53.750Z,7.00
2019-02-02T09:35:22.426Z,6.90
2019-02-02T09:37:50.241Z,7.00
2019-02-02T09:40:19.527Z,7.00
2019-02-02T09:42:47.453Z,7.00
2019-02-02T09:45:16.266Z,7.00
2019-02-02T09:47:44.919Z,7.00
2019-02-02T09:50:15.025Z,7.00
2019-02-02T09:52:43.142Z,7.00
2019-02-02T09:55:13.049Z,7.00
2019-02-02T09:57:40.805Z,7.00
2019-02-02T10:00:12.603Z,7.00
2019-02-02T10:02:40.716Z,7.00
2019-02-02T10:05:08.673Z,6.80
2019-02-02T10:07:36.573Z,7.00
2019-02-02T10:10:06.473Z,7.00
2019-02-02T10:12:34.214Z,6.90
2019-02-02T10:15:01.909Z,6.90
2019-02-02T10:17:30.200Z,6.90
2019-02-02T10:19:57.688Z,6.90
2019-02-02T10:22:25.663Z,6.90
2019-02-02T10:24:53.547Z,6.90
2019-02-02T10:27:24.410Z,6.80
2019-02-02T10:29:52.119Z,6.80
2019-02-02T10:32:19.642Z,7.20
2019-02-02T10:34:47.127Z,6.80
2019-02-02T10:37:15.287Z,6.80
2019-02-02T10:39:43.241Z,6.80
2019-02-02T10:42:11.341Z,6.80
2019-02-02T10:44:38.919Z,6.70
2019-02-02T10:47:06.809Z,6.70
2019-02-02T10:49:35.082Z,6.70
2019-02-02T10:52:02.542Z,6.70
2019-02-02T10:54:30.659Z,6.90
2019-02-02T10:56:58.502Z,7.00
2019-02-02T10:59:26.555Z,6.70
2019-02-02T11:01:55.571Z,6.70
2019-02-02T11:04:23.285Z,6.70
2019-02-02T11:06:51.919Z,6.80
2019-02-02T11:09:20.602Z,6.80
2019-02-02T11:11:48.674Z,6.80
2019-02-02T11:14:16.439Z,6.80
2019-02-02T11:16:46.956Z,6.80
2019-02-02T11:19:15.432Z,6.80
2019-02-02T11:21:43.592Z,6.80
2019-02-02T11:24:11.846Z,6.80
2019-02-02T11:26:39.376Z,6.80
2019-02-02T11:29:07.197Z,6.80
2019-02-02T11:31:34.922Z,6.80
2019-02-02T11:34:03.895Z,6.80
2019-02-02T11:36:32.489Z,6.80
2019-02-02T11:39:02.770Z,6.90
2019-02-02T11:41:30.766Z,6.80
2019-02-02T11:43:58.712Z,6.90
2019-02-02T11:46:26.609Z,6.90
2019-02-02T11:48:54.678Z,6.80
2019-02-02T11:51:22.524Z,6.80
2019-02-02T11:53:50.215Z,6.80
2019-02-02T11:56:18.159Z,6.90
2019-02-02T11:58:45.746Z,6.90
2019-02-02T12:01:13.422Z,6.90
2019-02-02T12:03:41.421Z,6.90
2019-02-02T12:06:09.235Z,6.90
2019-02-02T12:08:37.108Z,6.90
2019-02-02T12:11:05.223Z,6.90
2019-02-02T12:13:34.451Z,6.90
2019-02-02T12:16:02.703Z,6.90
2019-02-02T12:18:31.242Z,6.80
2019-02-02T12:20:59.080Z,6.80
2019-02-02T12:23:26.765Z,6.80
2019-02-02T12:25:54.971Z,6.80
2019-02-02T12:28:22.979Z,6.80
2019-02-02T12:30:50.648Z,6.80
2019-02-02T12:33:18.578Z,6.80
2019-02-02T12:35:46.219Z,6.80
2019-02-02T12:38:13.930Z,6.80
2019-02-02T12:40:41.890Z,6.80
2019-02-02T12:43:11.623Z,6.80
2019-02-02T12:45:45.122Z,6.80
2019-02-02T12:48:13.221Z,6.80
2019-02-02T12:50:41.998Z,6.80
2019-02-02T12:53:09.626Z,6.70
2019-02-02T12:55:37.740Z,6.80
2019-02-02T12:58:06.041Z,6.70
2019-02-02T13:00:33.634Z,6.80
2019-02-02T13:03:01.388Z,6.70
2019-02-02T13:05:29.581Z,6.70
2019-02-02T13:08:00.385Z,6.70
2019-02-02T13:10:28.288Z,6.70
2019-02-02T13:12:56.296Z,6.70
2019-02-02T13:15:25.148Z,6.60
2019-02-02T13:17:53.019Z,6.60
2019-02-02T13:20:21.496Z,6.70
2019-02-02T13:22:49.675Z,6.70
2019-02-02T13:25:18.868Z,6.70
2019-02-02T13:27:47.137Z,6.70
2019-02-02T13:30:20.834Z,6.70
2019-02-02T13:32:50.085Z,6.90
2019-02-02T13:35:18.959Z,6.70
2019-02-02T13:37:46.938Z,6.60
2019-02-02T13:40:16.641Z,6.70
2019-02-02T13:42:46.646Z,6.60
2019-02-02T13:45:15.339Z,6.70
2019-02-02T13:47:43.482Z,6.70
2019-02-02T13:50:12.907Z,6.70
2019-02-02T13:52:41.500Z,6.70
2019-02-02T13:55:09.720Z,6.70
2019-02-02T13:57:46.765Z,6.60
2019-02-02T14:00:17.239Z,6.60
2019-02-02T14:02:45.202Z,6.60
2019-02-02T14:05:14.220Z,6.60
2019-02-02T14:07:42.156Z,6.60
2019-02-02T14:10:12.632Z,6.60
2019-02-02T14:12:40.575Z,6.60
2019-02-02T14:15:09.592Z,6.60
2019-02-02T14:17:37.533Z,6.60
2019-02-02T14:20:05.830Z,6.60
2019-02-02T14:22:33.923Z,6.60
2019-02-02T14:25:02.268Z,6.60
2019-02-02T14:27:30.114Z,6.70
2019-02-02T14:29:59.754Z,6.60
2019-02-02T14:32:28.021Z,6.70
2019-02-02T14:34:55.897Z,6.70
2019-02-02T14:37:23.918Z,6.70
2019-02-02T14:39:51.515Z,6.70
2019-02-02T14:42:19.819Z,6.70
2019-02-02T14:44:47.971Z,6.70
2019-02-02T14:47:18.553Z,6.60
2019-02-02T14:49:46.452Z,6.70
2019-02-02T14:52:14.419Z,6.70
2019-02-02T14:54:42.641Z,6.70
2019-02-02T14:57:10.166Z,6.60
2019-02-02T14:59:37.670Z,6.60
2019-02-02T15:02:05.744Z,6.60
2019-02-02T15:04:33.749Z,6.60
2019-02-02T15:07:02.059Z,6.60
2019-02-02T15:09:29.998Z,6.60
2019-02-02T15:11:57.613Z,6.60
2019-02-02T15:14:25.779Z,6.60
2019-02-02T15:16:53.255Z,6.60
2019-02-02T15:19:21.390Z,6.60
2019-02-02T15:21:49.730Z,6.50
2019-02-02T15:24:20.262Z,6.60
2019-02-02T15:26:48.575Z,6.60
2019-02-02T15:29:16.915Z,6.50
2019-02-02T15:31:44.734Z,6.50
2019-02-02T15:34:13.505Z,6.50
2019-02-02T15:36:41.047Z,6.50
2019-02-02T15:39:09.424Z,6.50
2019-02-02T15:41:38.153Z,6.50
2019-02-02T15:44:05.811Z,6.50
2019-02-02T15:46:34.024Z,6.50
2019-02-02T15:49:01.906Z,6.50
2019-02-02T15:51:40.106Z,6.50
2019-02-02T15:54:00.092Z,6.50
2019-02-02T15:56:27.749Z,6.50
2019-02-02T15:58:55.504Z,6.40
2019-02-02T16:01:23.450Z,6.40
2019-02-02T16:03:54.291Z,6.40
2019-02-02T16:06:22.012Z,6.40
2019-02-02T16:08:49.862Z,6.40
2019-02-02T16:11:17.752Z,6.40
2019-02-02T16:13:46.455Z,6.40
2019-02-02T16:16:14.382Z,6.40
2019-02-02T16:18:43.482Z,6.40
2019-02-02T16:21:11.483Z,6.40
2019-02-02T16:23:39.330Z,6.40
2019-02-02T16:26:07.630Z,6.40
2019-02-02T16:28:37.297Z,6.40
2019-02-02T16:31:05.316Z,6.40
2019-02-02T16:33:33.097Z,6.40
2019-02-02T16:36:00.834Z,6.40
2019-02-02T16:38:28.783Z,6.40
2019-02-02T16:40:56.928Z,6.50
2019-02-02T16:43:24.939Z,6.40
2019-02-02T16:45:53.090Z,6.40
2019-02-02T16:48:21.615Z,6.40
2019-02-02T16:50:49.616Z,6.40
2019-02-02T16:53:17.446Z,6.30
2019-02-02T16:55:45.058Z,6.40
2019-02-02T16:58:12.854Z,6.40
2019-02-02T17:00:41.118Z,6.40
2019-02-02T17:03:09.252Z,6.30
2019-02-02T17:05:36.943Z,6.30
2019-02-02T17:08:05.286Z,6.30
2019-02-02T17:10:34.719Z,6.30
2019-02-02T17:13:06.215Z,6.30
2019-02-02T17:15:33.920Z,6.30
2019-02-02T17:18:07.905Z,6.20
2019-02-02T17:20:40.761Z,6.30
2019-02-02T17:23:08.538Z,6.30
2019-02-02T17:25:36.947Z,6.30
2019-02-02T17:28:05.270Z,6.30
2019-02-02T17:30:33.709Z,6.30
2019-02-02T17:33:02.580Z,6.30
2019-02-02T17:35:30.772Z,6.30
2019-02-02T17:37:58.449Z,6.30
2019-02-02T17:40:26.559Z,6.30
2019-02-02T17:42:54.265Z,6.30
2019-02-02T17:45:22.031Z,6.30
2019-02-02T17:47:49.798Z,6.30
2019-02-02T17:50:19.005Z,6.30
2019-02-02T17:52:46.829Z,6.30
2019-02-02T17:55:14.846Z,6.30
2019-02-02T17:57:42.579Z,6.30
2019-02-02T18:00:13.302Z,6.30
2019-02-02T18:02:40.938Z,6.30
2019-02-02T18:05:08.794Z,6.30
2019-02-02T18:07:36.228Z,6.30
2019-02-02T18:10:05.526Z,6.20
2019-02-02T18:12:33.221Z,6.30
2019-02-02T18:15:03.799Z,6.30
2019-02-02T18:17:31.707Z,6.30
2019-02-02T18:19:59.702Z,6.20
2019-02-02T18:22:27.952Z,6.30
2019-02-02T18:24:55.598Z,6.20
2019-02-02T18:27:23.257Z,6.20
2019-02-02T18:29:51.428Z,6.20
2019-02-02T18:32:19.056Z,6.20
2019-02-02T18:34:51.196Z,6.20
2019-02-02T18:37:17.543Z,6.20
2019-02-02T18:39:45.092Z,6.10
2019-02-02T18:42:13.499Z,6.10
2019-02-02T18:44:41.304Z,6.10
2019-02-02T18:47:08.819Z,6.10
2019-02-02T18:49:36.749Z,6.10
2019-02-02T18:52:13.508Z,6.10
2019-02-02T18:54:41.336Z,6.00
2019-02-02T18:57:09.930Z,6.00
2019-02-02T18:59:37.881Z,5.90
2019-02-02T19:02:05.907Z,5.90
2019-02-02T19:04:33.758Z,5.90
2019-02-02T19:07:01.462Z,5.80
2019-02-02T19:09:28.768Z,6.00
2019-02-02T19:11:59.490Z,5.80
2019-02-02T19:14:27.210Z,5.80
2019-02-02T19:17:01.101Z,6.10
2019-02-02T19:19:24.561Z,5.80
2019-02-02T19:21:52.744Z,5.80
2019-02-02T19:24:20.327Z,5.80
2019-02-02T19:26:48.523Z,5.80
2019-02-02T19:29:15.921Z,5.80
2019-02-02T19:31:44.047Z,5.80
2019-02-02T19:34:12.434Z,5.80
2019-02-02T19:36:40.650Z,5.70
2019-02-02T19:39:08.980Z,5.90
2019-02-02T19:41:37.302Z,5.80
2019-02-02T19:44:05.101Z,5.80
2019-02-02T19:46:32.657Z,5.80
2019-02-02T19:49:00.453Z,5.80
2019-02-02T19:51:27.976Z,5.80
2019-02-02T19:53:56.251Z,5.80
2019-02-02T19:56:23.896Z,5.80
2019-02-02T19:58:51.615Z,5.70
2019-02-02T20:01:19.884Z,5.80
2019-02-02T20:03:47.611Z,5.80
2019-02-02T20:06:15.097Z,5.70
2019-02-02T20:08:42.900Z,5.70
2019-02-02T20:11:11.153Z,5.70
2019-02-02T20:13:39.781Z,5.70
2019-02-02T20:16:07.458Z,5.70
2019-02-02T20:18:35.292Z,5.70
2019-02-02T20:21:03.373Z,5.70
2019-02-02T20:23:31.230Z,5.70
2019-02-02T20:25:59.236Z,5.70
2019-02-02T20:28:27.095Z,5.70
2019-02-02T20:30:55.290Z,5.70
2019-02-02T20:33:23.127Z,5.70
2019-02-02T20:35:51.134Z,5.70
2019-02-02T20:38:19.002Z,5.70
2019-02-02T20:40:46.999Z,5.70
2019-02-02T20:43:14.871Z,5.70
2019-02-02T20:45:42.580Z,5.70
2019-02-02T20:48:10.078Z,5.70
2019-02-02T20:50:38.583Z,5.60
2019-02-02T20:53:06.430Z,5.60
2019-02-02T20:55:37.090Z,5.60
2019-02-02T20:58:06.213Z,5.60
2019-02-02T21:00:34.761Z,5.60
2019-02-02T21:03:02.460Z,5.70
2019-02-02T21:05:32.055Z,5.70
2019-02-02T21:08:00.634Z,5.70
2019-02-02T21:10:28.673Z,5.70
2019-02-02T21:12:57.416Z,5.70
2019-02-02T21:15:25.330Z,5.70
2019-02-02T21:17:53.046Z,5.80
2019-02-02T21:20:22.920Z,5.80
2019-02-02T21:22:51.124Z,5.80
2019-02-02T21:25:19.221Z,5.80
2019-02-02T21:27:47.346Z,5.80
2019-02-02T21:30:41.201Z,5.80
2019-02-02T21:33:08.767Z,5.80
2019-02-02T21:35:36.325Z,5.80
2019-02-02T21:38:04.508Z,5.80
2019-02-02T21:40:33.021Z,5.90
2019-02-02T21:43:00.857Z,5.90
2019-02-02T21:45:28.389Z,5.90
2019-02-02T21:47:55.983Z,5.90
2019-02-02T21:50:23.769Z,5.90
2019-02-02T21:52:51.346Z,5.90
2019-02-02T21:55:20.997Z,5.90
2019-02-02T21:57:48.434Z,5.90
2019-02-02T22:00:39.493Z,5.90
2019-02-02T22:03:07.377Z,5.80
2019-02-02T22:05:35.230Z,5.90
2019-02-02T22:08:03.415Z,5.80
2019-02-02T22:10:30.902Z,5.80
2019-02-02T22:12:58.888Z,5.80
2019-02-02T22:15:26.378Z,5.40
2019-02-02T22:17:53.692Z,5.70
2019-02-02T22:20:21.828Z,5.80
2019-02-02T22:22:50.410Z,5.60
2019-02-02T22:25:23.522Z,5.60
2019-02-02T22:27:52.064Z,5.60
2019-02-02T22:30:24.430Z,5.60
2019-02-02T22:32:52.257Z,5.60
2019-02-02T22:35:19.580Z,5.60
2019-02-02T22:37:48.096Z,5.60
2019-02-02T22:40:17.451Z,5.60
2019-02-02T22:42:45.253Z,5.60
2019-02-02T22:45:14.522Z,5.50
2019-02-02T22:47:42.193Z,5.50
2019-02-02T22:50:12.214Z,5.50
2019-02-02T22:52:39.746Z,5.50
2019-02-02T22:55:08.313Z,5.40
2019-02-02T22:57:35.740Z,5.30
2019-02-02T23:00:56.622Z,5.20
2019-02-02T23:03:38.878Z,5.20
2019-02-02T23:06:51.349Z,5.10
2019-02-02T23:09:57.715Z,5.10
2019-02-02T23:12:59.652Z,5.10
2019-02-02T23:16:07.993Z,5.10
2019-02-02T23:18:35.426Z,5.10
2019-02-02T23:21:04.894Z,5.00
2019-02-02T23:23:32.510Z,5.00
2019-02-02T23:26:00.431Z,5.10
2019-02-02T23:28:28.295Z,5.10
2019-02-02T23:30:56.116Z,5.20
2019-02-02T23:33:30.374Z,5.20
2019-02-02T23:35:58.524Z,5.20
2019-02-02T23:38:26.477Z,5.30
2019-02-02T23:40:54.807Z,5.40
2019-02-02T23:43:22.811Z,5.40
2019-02-02T23:45:50.314Z,5.50
2019-02-02T23:48:18.211Z,5.50
2019-02-02T23:50:46.336Z,5.60
2019-02-02T23:53:13.995Z,5.60
2019-02-02T23:55:41.615Z,5.60
2019-02-02T23:58:09.722Z,5.60
